createdAt,value
2022-10-05T00:01:01.308Z,101380.63
2022-10-05T00:04:28.378Z,101392.16
2022-10-05T00:07:30.472Z,101393.13
2022-10-05T00:10:33.332Z,101386.19
2022-10-05T00:13:35.601Z,101376.41
2022-10-05T00:16:37.822Z,101388.88
2022-10-05T00:19:39.912Z,101390.69
2022-10-05T00:22:42.188Z,101377.50
2022-10-05T00:25:44.282Z,101376.59
2022-10-05T00:28:46.948Z,101380.06
2022-10-05T00:31:50.155Z,101382.75
2022-10-05T00:34:52.510Z,101378.38
2022-10-05T00:37:55.554Z,101381.16
2022-10-05T00:41:00.626Z,101380.16
2022-10-05T00:44:02.692Z,101381.13
2022-10-05T00:47:18.660Z,101371.50
2022-10-05T00:50:26.735Z,101374.97
2022-10-05T00:53:53.914Z,101368.03
2022-10-05T00:57:03.205Z,101377.03
2022-10-05T01:00:13.033Z,101383.28
2022-10-05T01:03:27.720Z,101389.47
2022-10-05T01:06:55.052Z,101386.94
2022-10-05T01:10:16.036Z,101385.94
2022-10-05T01:13:29.577Z,101386.13
2022-10-05T01:16:48.531Z,101387.84
2022-10-05T01:20:05.957Z,101380.00
2022-10-05T01:23:32.783Z,101378.25
2022-10-05T01:27:29.599Z,101374.63
2022-10-05T01:30:38.077Z,101369.31
2022-10-05T01:33:46.752Z,101372.97
2022-10-05T01:37:23.319Z,101365.91
2022-10-05T01:40:39.928Z,101379.22
2022-10-05T01:44:02.936Z,101382.78
2022-10-05T01:47:14.160Z,101378.47
2022-10-05T01:50:22.226Z,101377.53
2022-10-05T01:53:35.119Z,101389.03
2022-10-05T01:56:45.745Z,101374.81
2022-10-05T02:00:08.470Z,101377.44
2022-10-05T02:03:22.554Z,101383.66
2022-10-05T02:06:27.075Z,101364.19
2022-10-05T02:09:34.400Z,101361.50
2022-10-05T02:12:37.943Z,101347.44
2022-10-05T02:16:03.947Z,101326.22
2022-10-05T02:19:22.612Z,101316.44
2022-10-05T02:22:31.417Z,101319.88
2022-10-05T02:25:37.827Z,101330.56
2022-10-05T02:28:47.569Z,101332.25
2022-10-05T02:31:58.165Z,101337.44
2022-10-05T02:35:04.158Z,101331.03
2022-10-05T02:38:38.450Z,101337.19
2022-10-05T02:42:05.905Z,101346.91
2022-10-05T02:45:20.454Z,101347.00
2022-10-05T02:48:28.974Z,101321.03
2022-10-05T02:51:51.882Z,101341.41
2022-10-05T02:55:06.282Z,101363.59
2022-10-05T02:58:23.117Z,101357.34
2022-10-05T03:01:36.132Z,101361.84
2022-10-05T03:05:10.297Z,101362.66
2022-10-05T03:08:18.410Z,101365.31
2022-10-05T03:11:40.187Z,101363.69
2022-10-05T03:15:07.213Z,101373.41
2022-10-05T03:18:46.884Z,101380.56
2022-10-05T03:22:23.721Z,101375.94
2022-10-05T03:25:34.857Z,101372.34
2022-10-05T03:29:03.881Z,101362.75
2022-10-05T03:32:43.897Z,101345.22
2022-10-05T03:36:07.826Z,101352.19
2022-10-05T03:39:57.449Z,101349.66
2022-10-05T03:43:12.378Z,101360.25
2022-10-05T03:46:36.402Z,101352.41
2022-10-05T03:50:06.662Z,101348.88
2022-10-05T03:53:19.220Z,101343.56
2022-10-05T03:56:33.723Z,101346.16
2022-10-05T04:00:05.493Z,101343.56
2022-10-05T04:03:36.765Z,101336.34
2022-10-05T04:06:46.867Z,101327.53
2022-10-05T04:09:51.312Z,101330.19
2022-10-05T04:13:05.273Z,101326.72
2022-10-05T04:16:16.243Z,101332.84
2022-10-05T04:19:34.862Z,101344.34
2022-10-05T04:22:46.503Z,101348.75
2022-10-05T04:25:52.792Z,101355.72
2022-10-05T04:29:15.244Z,101360.97
2022-10-05T04:32:30.459Z,101361.03
2022-10-05T04:35:53.175Z,101354.78
2022-10-05T04:39:15.696Z,101341.47
2022-10-05T04:42:35.092Z,101343.09
2022-10-05T04:46:09.063Z,101352.72
2022-10-05T04:49:14.147Z,101349.09
2022-10-05T04:52:37.784Z,101354.34
2022-10-05T04:56:08.254Z,101369.28
2022-10-05T04:59:45.234Z,101375.47
2022-10-05T05:03:24.870Z,101373.72
2022-10-05T05:06:37.426Z,101363.09
2022-10-05T05:09:45.455Z,101378.16
2022-10-05T05:12:57.948Z,101371.13
2022-10-05T05:16:16.775Z,101367.78
2022-10-05T05:19:45.035Z,101364.25
2022-10-05T05:22:50.175Z,101367.84
2022-10-05T05:26:06.530Z,101359.13
2022-10-05T05:29:19.249Z,101340.72
2022-10-05T05:32:40.118Z,101337.09
2022-10-05T05:36:14.113Z,101353.03
2022-10-05T05:39:29.656Z,101353.00
2022-10-05T05:43:13.108Z,101359.25
2022-10-05T05:47:01.669Z,101359.53
2022-10-05T05:50:07.430Z,101352.47
2022-10-05T05:53:36.873Z,101362.31
2022-10-05T05:56:45.548Z,101351.72
2022-10-05T06:00:03.783Z,101367.78
2022-10-05T06:03:43.695Z,101359.19
2022-10-05T06:06:51.446Z,101357.56
2022-10-05T06:10:18.404Z,101356.69
2022-10-05T06:13:40.730Z,101343.56
2022-10-05T06:16:50.523Z,101340.97
2022-10-05T06:20:01.121Z,101349.00
2022-10-05T06:23:10.741Z,101349.16
2022-10-05T06:26:28.262Z,101337.75
2022-10-05T06:30:08.984Z,101355.56
2022-10-05T06:33:51.140Z,101344.28
2022-10-05T06:37:00.681Z,101350.63
2022-10-05T06:40:35.106Z,101354.22
2022-10-05T06:43:46.488Z,101354.34
2022-10-05T06:47:07.815Z,101347.31
2022-10-05T06:50:32.682Z,101343.81
2022-10-05T06:53:53.394Z,101353.75
2022-10-05T06:56:58.547Z,101344.94
2022-10-05T07:00:15.862Z,101344.09
2022-10-05T07:03:49.175Z,101343.25
2022-10-05T07:07:07.624Z,101350.31
2022-10-05T07:10:31.794Z,101355.81
2022-10-05T07:13:57.599Z,101360.22
2022-10-05T07:17:24.636Z,101345.16
2022-10-05T07:20:32.406Z,101355.97
2022-10-05T07:24:01.708Z,101353.53
2022-10-05T07:27:04.015Z,101349.25
2022-10-05T07:30:08.333Z,101354.66
2022-10-05T07:33:26.835Z,101341.41
2022-10-05T07:37:08.420Z,101345.00
2022-10-05T07:40:19.302Z,101333.44
2022-10-05T07:43:21.779Z,101327.25
2022-10-05T07:46:32.507Z,101326.44
2022-10-05T07:49:41.484Z,101329.13
2022-10-05T07:52:50.455Z,101325.63
2022-10-05T07:55:54.837Z,101322.97
2022-10-05T07:59:26.542Z,101318.53
2022-10-05T08:02:34.624Z,101310.56
2022-10-05T08:05:41.979Z,101304.34
2022-10-05T08:08:58.762Z,101305.25
2022-10-05T08:12:08.032Z,101306.09
2022-10-05T08:15:20.563Z,101301.59
2022-10-05T08:18:58.889Z,101285.53
2022-10-05T08:22:05.396Z,101289.06
2022-10-05T08:25:19.566Z,101298.81
2022-10-05T08:28:31.789Z,101309.44
2022-10-05T08:31:36.113Z,101309.31
2022-10-05T08:34:45.816Z,101299.34
2022-10-05T08:37:49.629Z,101302.72
2022-10-05T08:41:10.817Z,101302.69
2022-10-05T08:45:02.827Z,101308.00
2022-10-05T08:48:42.043Z,101287.38
2022-10-05T08:51:54.166Z,101289.88
2022-10-05T08:55:17.488Z,101280.06
2022-10-05T08:58:37.583Z,101271.16
2022-10-05T09:01:51.929Z,101268.38
2022-10-05T09:05:13.526Z,101257.63
2022-10-05T09:09:03.409Z,101253.75
2022-10-05T09:12:11.216Z,101259.88
2022-10-05T09:15:28.354Z,101258.97
2022-10-05T09:19:08.142Z,101257.91
2022-10-05T09:22:35.261Z,101247.31
2022-10-05T09:25:40.144Z,101236.59
2022-10-05T09:29:11.378Z,101249.91
2022-10-05T09:32:23.723Z,101264.78
2022-10-05T09:35:34.491Z,101279.84
2022-10-05T09:38:55.097Z,101267.97
2022-10-05T09:42:26.353Z,101258.16
2022-10-05T09:45:41.463Z,101260.59
2022-10-05T09:48:56.691Z,101265.88
2022-10-05T09:52:08.061Z,101268.59
2022-10-05T09:55:28.332Z,101273.78
2022-10-05T09:58:55.240Z,101271.75
2022-10-05T10:02:28.378Z,101268.88
2022-10-05T10:05:55.177Z,101278.50
2022-10-05T10:09:38.523Z,101277.97
2022-10-05T10:13:06.196Z,101271.75
2022-10-05T10:16:49.258Z,101259.34
2022-10-05T10:20:00.621Z,101249.22
2022-10-05T10:23:02.877Z,101248.25
2022-10-05T10:26:26.554Z,101238.13
2022-10-05T10:29:57.580Z,101238.88
2022-10-05T10:33:30.777Z,101229.53
2022-10-05T10:36:52.048Z,101213.69
2022-10-05T10:40:20.280Z,101198.53
2022-10-05T10:43:43.891Z,101202.69
2022-10-05T10:47:17.215Z,101194.78
2022-10-05T10:50:56.687Z,101202.84
2022-10-05T10:54:19.145Z,101201.56
2022-10-05T10:57:32.891Z,101200.16
2022-10-05T11:00:51.298Z,101200.84
2022-10-05T11:04:19.215Z,101185.91
2022-10-05T11:07:59.103Z,101193.97
2022-10-05T11:11:23.907Z,101205.38
2022-10-05T11:14:34.037Z,101206.09
2022-10-05T11:17:58.169Z,101196.25
2022-10-05T11:21:12.633Z,101190.56
2022-10-05T11:24:29.489Z,101188.47
2022-10-05T11:27:43.553Z,101193.84
2022-10-05T11:31:04.373Z,101192.09
2022-10-05T11:34:44.028Z,101183.06
2022-10-05T11:38:02.664Z,101179.34
2022-10-05T11:41:37.585Z,101177.22
2022-10-05T11:44:45.472Z,101169.41
2022-10-05T11:47:50.425Z,101173.00
2022-10-05T11:50:58.272Z,101170.63
2022-10-05T11:54:24.093Z,101180.44
2022-10-05T11:57:51.151Z,101171.84
2022-10-05T12:00:57.434Z,101179.00
2022-10-05T12:04:26.795Z,101173.81
2022-10-05T12:07:42.221Z,101176.97
2022-10-05T12:11:10.106Z,101164.41
2022-10-05T12:14:37.968Z,101168.28
2022-10-05T12:17:51.120Z,101168.78
2022-10-05T12:21:11.505Z,101166.44
2022-10-05T12:24:22.253Z,101173.75
2022-10-05T12:27:35.324Z,101176.91
2022-10-05T12:31:15.182Z,101167.56
2022-10-05T12:34:42.700Z,101163.50
2022-10-05T12:38:01.987Z,101165.97
2022-10-05T12:41:13.273Z,101164.28
2022-10-05T12:44:39.759Z,101157.03
2022-10-05T12:47:51.512Z,101163.34
2022-10-05T12:51:00.600Z,101182.97
2022-10-05T12:54:24.600Z,101173.97
2022-10-05T12:57:26.525Z,101176.88
2022-10-05T13:00:33.079Z,101168.56
2022-10-05T13:03:42.722Z,101164.56
2022-10-05T13:07:06.578Z,101167.91
2022-10-05T13:10:20.681Z,101166.19
2022-10-05T13:13:34.723Z,101162.75
2022-10-05T13:17:15.310Z,101176.44
2022-10-05T13:20:47.273Z,101166.94
2022-10-05T13:24:08.048Z,101166.19
2022-10-05T13:27:22.175Z,101158.19
2022-10-05T13:30:24.204Z,101154.75
2022-10-05T13:33:51.071Z,101153.06
2022-10-05T13:36:59.003Z,101152.38
2022-10-05T13:40:01.239Z,101146.75
2022-10-05T13:43:07.753Z,101153.69
2022-10-05T13:46:15.240Z,101151.94
2022-10-05T13:49:29.503Z,101153.88
2022-10-05T13:52:38.421Z,101158.38
2022-10-05T13:55:55.617Z,101161.44
2022-10-05T13:59:39.637Z,101145.00
2022-10-05T14:02:47.270Z,101141.41
2022-10-05T14:05:58.195Z,101120.81
2022-10-05T14:09:00.551Z,101132.72
2022-10-05T14:12:02.812Z,101127.34
2022-10-05T14:15:18.893Z,101126.72
2022-10-05T14:18:28.549Z,101137.31
2022-10-05T14:21:32.725Z,101131.03
2022-10-05T14:24:44.307Z,101134.84
2022-10-05T14:27:52.695Z,101137.78
2022-10-05T14:30:59.241Z,101142.16
2022-10-05T14:34:30.691Z,101137.53
2022-10-05T14:37:58.093Z,101135.97
2022-10-05T14:41:12.538Z,101144.16
2022-10-05T14:44:15.354Z,101143.34
2022-10-05T14:47:22.958Z,101148.72
2022-10-05T14:50:29.473Z,101137.91
2022-10-05T14:53:46.590Z,101125.50
2022-10-05T14:57:38.001Z,101115.63
2022-10-05T15:00:49.610Z,101120.44
2022-10-05T15:04:30.397Z,101124.91
2022-10-05T15:07:42.060Z,101137.56
2022-10-05T15:11:03.105Z,101121.38
2022-10-05T15:14:16.853Z,101118.75
2022-10-05T15:17:29.794Z,101120.00
2022-10-05T15:20:45.616Z,101126.03
2022-10-05T15:23:54.409Z,101117.16
2022-10-05T15:26:59.396Z,101109.31
2022-10-05T15:30:18.177Z,101103.94
2022-10-05T15:34:05.393Z,101122.94
2022-10-05T15:37:27.911Z,101141.59
2022-10-05T15:40:35.608Z,101124.59
2022-10-05T15:43:58.675Z,101118.56
2022-10-05T15:47:07.851Z,101123.25
2022-10-05T15:50:32.444Z,101118.78
2022-10-05T15:54:19.627Z,101105.56
2022-10-05T15:57:34.212Z,101067.56
2022-10-05T16:00:47.923Z,101064.97
2022-10-05T16:04:11.544Z,101093.59
2022-10-05T16:07:39.214Z,101098.97
2022-10-05T16:10:44.229Z,101088.38
2022-10-05T16:13:59.819Z,101082.19
2022-10-05T16:17:24.236Z,101079.66
2022-10-05T16:20:42.634Z,101070.84
2022-10-05T16:24:09.307Z,101072.13
2022-10-05T16:27:34.414Z,101072.03
2022-10-05T16:31:03.550Z,101075.78
2022-10-05T16:34:24.699Z,101076.78
2022-10-05T16:37:29.832Z,101089.34
2022-10-05T16:40:41.696Z,101084.94
2022-10-05T16:44:18.412Z,101091.16
2022-10-05T16:47:34.004Z,101095.66
2022-10-05T16:50:49.576Z,101076.81
2022-10-05T16:53:59.368Z,101092.13
2022-10-05T16:57:21.405Z,101093.00
2022-10-05T17:00:46.701Z,101096.69
2022-10-05T17:04:26.360Z,101094.03
2022-10-05T17:08:06.405Z,101099.56
2022-10-05T17:11:31.577Z,101094.16
2022-10-05T17:14:41.104Z,101089.84
2022-10-05T17:18:27.345Z,101097.97
2022-10-05T17:21:45.387Z,101095.38
2022-10-05T17:25:08.759Z,101093.72
2022-10-05T17:28:24.066Z,101084.00
2022-10-05T17:31:31.332Z,101084.88
2022-10-05T17:35:18.668Z,101081.44
2022-10-05T17:38:30.797Z,101088.56
2022-10-05T17:41:32.969Z,101085.00
2022-10-05T17:44:35.629Z,101093.09
2022-10-05T17:48:03.806Z,101080.69
2022-10-05T17:51:46.521Z,101078.91
2022-10-05T17:55:09.042Z,101077.13
2022-10-05T17:58:29.771Z,101080.72
2022-10-05T18:01:39.316Z,101079.09
2022-10-05T18:04:50.129Z,101078.22
2022-10-05T18:08:16.372Z,101082.66
2022-10-05T18:11:41.035Z,101083.63
2022-10-05T18:14:52.263Z,101078.38
2022-10-05T18:18:19.862Z,101080.19
2022-10-05T18:21:33.091Z,101081.13
2022-10-05T18:25:04.070Z,101073.13
2022-10-05T18:28:25.258Z,101074.91
2022-10-05T18:31:30.795Z,101073.16
2022-10-05T18:34:43.872Z,101071.38
2022-10-05T18:37:52.616Z,101067.00
2022-10-05T18:41:02.374Z,101072.38
2022-10-05T18:44:12.184Z,101067.00
2022-10-05T18:47:31.219Z,101059.94
2022-10-05T18:50:38.356Z,101059.09
2022-10-05T18:53:51.806Z,101063.56
2022-10-05T18:56:54.336Z,101050.28
2022-10-05T19:00:07.380Z,101042.25
2022-10-05T19:03:26.214Z,101043.13
2022-10-05T19:06:28.293Z,101044.94
2022-10-05T19:10:01.655Z,101052.97
2022-10-05T19:13:16.727Z,101053.00
2022-10-05T19:16:22.820Z,101054.78
2022-10-05T19:20:04.103Z,101053.94
2022-10-05T19:23:32.991Z,101050.38
2022-10-05T19:26:56.994Z,101056.63
2022-10-05T19:30:20.332Z,101056.63
2022-10-05T19:33:32.238Z,101051.28
2022-10-05T19:36:52.891Z,101056.66
2022-10-05T19:39:58.932Z,101053.09
2022-10-05T19:43:32.204Z,101054.91
2022-10-05T19:47:00.988Z,101058.50
2022-10-05T19:50:23.456Z,101055.84
2022-10-05T19:53:31.070Z,101060.28
2022-10-05T19:56:34.575Z,101059.41
2022-10-05T19:59:40.482Z,101061.22
2022-10-05T20:02:42.504Z,101069.19
2022-10-05T20:05:45.246Z,101063.81
2022-10-05T20:08:49.714Z,101064.72
2022-10-05T20:11:53.132Z,101072.75
2022-10-05T20:15:24.624Z,101072.75
2022-10-05T20:18:58.568Z,101073.66
2022-10-05T20:22:40.895Z,101082.59
2022-10-05T20:26:03.309Z,101078.16
2022-10-05T20:29:09.045Z,101084.41
2022-10-05T20:32:17.758Z,101069.31
2022-10-05T20:35:25.220Z,101086.25
2022-10-05T20:38:45.400Z,101083.56
2022-10-05T20:41:47.775Z,101088.00
2022-10-05T20:44:55.829Z,101088.03
2022-10-05T20:47:59.169Z,101085.38
2022-10-05T20:51:02.176Z,101088.97
2022-10-05T20:54:05.131Z,101090.75
2022-10-05T20:57:07.313Z,101097.88
2022-10-05T21:00:11.642Z,101104.13
2022-10-05T21:03:13.797Z,101104.16
2022-10-05T21:06:18.058Z,101102.31
2022-10-05T21:09:21.672Z,101100.59
2022-10-05T21:12:24.174Z,101105.94
2022-10-05T21:15:26.853Z,101108.63
2022-10-05T21:18:29.752Z,101113.97
2022-10-05T21:21:33.075Z,101110.44
2022-10-05T21:24:39.459Z,101114.91
2022-10-05T21:27:42.130Z,101109.59
2022-10-05T21:30:44.484Z,101102.47
2022-10-05T21:33:46.536Z,101110.44
2022-10-05T21:36:48.831Z,101112.25
2022-10-05T21:39:50.864Z,101112.25
2022-10-05T21:42:53.113Z,101114.91
2022-10-05T21:45:55.724Z,101121.13
2022-10-05T21:48:57.995Z,101121.13
2022-10-05T21:52:01.020Z,101114.03
2022-10-05T21:55:04.218Z,101123.84
2022-10-05T21:58:08.440Z,101118.50
2022-10-05T22:01:11.018Z,101130.97
2022-10-05T22:04:13.719Z,101121.19
2022-10-05T22:07:20.238Z,101125.63
2022-10-05T22:10:22.257Z,101124.75
2022-10-05T22:13:26.162Z,101115.84
2022-10-05T22:16:31.505Z,101118.56
2022-10-05T22:19:33.832Z,101114.09
2022-10-05T22:22:35.812Z,101107.88
2022-10-05T22:25:39.228Z,101099.91
2022-10-05T22:28:42.420Z,101112.34
2022-10-05T22:31:46.323Z,101117.69
2022-10-05T22:34:48.393Z,101112.31
2022-10-05T22:37:50.702Z,101115.88
2022-10-05T22:40:52.810Z,101112.31
2022-10-05T22:43:55.041Z,101111.44
2022-10-05T22:46:57.006Z,101113.25
2022-10-05T22:50:00.200Z,101108.75
2022-10-05T22:53:02.236Z,101112.34
2022-10-05T22:56:06.255Z,101111.44
2022-10-05T22:59:08.214Z,101118.53
2022-10-05T23:02:10.892Z,101123.00
2022-10-05T23:05:13.516Z,101115.88
2022-10-05T23:08:17.296Z,101114.09
2022-10-05T23:11:23.586Z,101119.41
2022-10-05T23:14:26.001Z,101121.19
2022-10-05T23:17:28.605Z,101125.66
2022-10-05T23:20:30.850Z,101119.44
2022-10-05T23:23:33.028Z,101132.75
2022-10-05T23:26:35.519Z,101138.97
2022-10-05T23:29:37.607Z,101143.41
2022-10-05T23:32:44.441Z,101149.63
2022-10-05T23:35:46.456Z,101136.28
2022-10-05T23:38:49.231Z,101141.59
2022-10-05T23:41:51.393Z,101134.47
2022-10-05T23:44:53.650Z,101131.81
2022-10-05T23:47:55.809Z,101130.91
2022-10-05T23:50:58.683Z,101132.69
2022-10-05T23:54:00.894Z,101135.34
2022-10-05T23:57:03.503Z,101140.66
